Time;durP1;ratioP1;P1;durP2;ratioP2;P2;SDS_P1;SDS_P2;PMS_P1;PMS_P2;Temp;Humidity;BMP_temperature;BMP_pressure;BME280_temperature;BME280_humidity;BME280_pressure;Samples;Min_cycle;Max_cycle;Signal;HPM_P1;HPM_P2
2023/06/01 00:02:04;;;;;;;3.78;1.48;;;16.00;95.30;;;;;;4980393;28;20113;-66
2023/06/01 00:04:30;;;;;;;9.00;1.92;;;16.00;95.60;;;;;;4972911;28;20206;-66
2023/06/01 00:06:56;;;;;;;8.75;1.60;;;15.90;95.90;;;;;;4979547;28;20561;-66
2023/06/01 00:09:21;;;;;;;3.03;1.38;;;15.80;96.40;;;;;;4964012;28;20014;-66
2023/06/01 00:11:47;;;;;;;4.78;1.60;;;15.80;96.20;;;;;;4983026;28;20084;-66
2023/06/01 00:14:13;;;;;;;8.05;1.70;;;15.80;96.20;;;;;;4982033;28;20055;-66
2023/06/01 00:16:38;;;;;;;5.13;1.50;;;15.80;96.20;;;;;;4982559;28;20033;-65
2023/06/01 00:19:04;;;;;;;5.78;1.75;;;15.90;96.30;;;;;;4979648;28;20031;-66
2023/06/01 00:21:35;;;;;;;2.65;1.55;;;15.80;96.30;;;;;;4980853;28;20027;-66
2023/06/01 00:24:01;;;;;;;8.68;1.90;;;15.80;96.30;;;;;;4976946;28;20395;-67
2023/06/01 00:26:26;;;;;;;5.05;1.55;;;15.80;96.60;;;;;;4978925;28;20034;-68
2023/06/01 00:28:52;;;;;;;10.27;2.45;;;15.80;96.70;;;;;;4982370;28;20086;-66
2023/06/01 00:31:17;;;;;;;5.07;1.90;;;15.70;96.80;;;;;;4982395;28;20026;-66
2023/06/01 00:33:43;;;;;;;3.20;1.52;;;15.70;96.90;;;;;;4977823;28;20072;-66
2023/06/01 00:36:09;;;;;;;3.63;1.80;;;15.70;96.90;;;;;;4976905;28;20066;-66
2023/06/01 00:38:34;;;;;;;6.03;1.60;;;15.60;97.20;;;;;;4981860;28;20488;-66
2023/06/01 00:41:00;;;;;;;3.33;1.40;;;15.60;97.30;;;;;;4979096;28;20403;-65
2023/06/01 00:43:26;;;;;;;6.78;1.95;;;15.50;97.50;;;;;;4978299;28;20050;-65
2023/06/01 00:45:52;;;;;;;6.07;1.65;;;15.50;97.80;;;;;;4981533;28;20398;-65
2023/06/01 00:48:18;;;;;;;6.05;1.50;;;15.50;97.90;;;;;;4979957;28;20081;-65
2023/06/01 00:50:44;;;;;;;7.45;1.63;;;15.40;98.10;;;;;;4978538;28;20480;-64
2023/06/01 00:53:20;;;;;;;4.53;1.65;;;15.40;98.30;;;;;;4968252;28;20431;-65
2023/06/01 00:55:46;;;;;;;6.55;2.25;;;15.40;98.50;;;;;;4977688;28;20026;-66
2023/06/01 00:58:15;;;;;;;11.57;2.63;;;15.40;98.70;;;;;;4976575;28;20206;-66
2023/06/01 01:00:41;;;;;;;6.22;2.15;;;15.30;99.00;;;;;;4984264;28;20111;-66
2023/06/01 01:03:08;;;;;;;4.82;1.67;;;15.30;99.20;;;;;;4979238;28;20037;-66
2023/06/01 01:05:39;;;;;;;6.70;2.20;;;15.20;99.40;;;;;;4973589;28;20026;-65
2023/06/01 01:09:07;;;;;;;3.83;1.55;;;15.30;99.60;;;;;;4978118;28;20027;-66
2023/06/01 01:11:35;;;;;;;1.50;1.08;;;15.20;99.90;;;;;;4973856;28;20519;-66
2023/06/01 01:14:23;;;;;;;5.28;1.50;;;15.10;99.90;;;;;;4979140;28;20022;-63
2023/06/01 01:17:07;;;;;;;4.35;1.83;;;15.10;99.90;;;;;;4980067;28;20472;-65
2023/06/01 01:19:42;;;;;;;7.15;2.08;;;15.00;99.90;;;;;;4976434;28;20035;-66
2023/06/01 01:22:57;;;;;;;5.05;1.83;;;15.00;99.90;;;;;;4979499;28;20061;-66
2023/06/01 01:25:36;;;;;;;4.45;1.52;;;14.90;99.90;;;;;;4958972;28;20047;-66
2023/06/01 01:28:39;;;;;;;6.47;2.08;;;14.90;99.90;;;;;;4981442;28;20060;-66
2023/06/01 01:31:08;;;;;;;5.05;1.95;;;14.70;99.90;;;;;;4980920;28;20148;-66
2023/06/01 01:33:36;;;;;;;5.82;2.22;;;14.50;99.90;;;;;;4982363;28;20114;-67
2023/06/01 01:36:02;;;;;;;4.82;1.90;;;14.30;99.90;;;;;;4978741;28;20425;-65
2023/06/01 01:38:28;;;;;;;5.30;1.63;;;14.10;99.90;;;;;;4978414;28;20129;-66
2023/06/01 01:40:53;;;;;;;6.82;2.67;;;13.90;99.90;;;;;;4962397;28;20121;-66
2023/06/01 01:43:20;;;;;;;3.30;2.42;;;13.80;99.90;;;;;;4981672;28;20499;-66
2023/06/01 01:45:54;;;;;;;8.05;2.28;;;13.60;99.90;;;;;;4985114;28;20459;-65
2023/06/01 01:48:25;;;;;;;5.05;2.20;;;13.50;99.90;;;;;;4983494;28;20023;-66
2023/06/01 01:50:56;;;;;;;8.48;2.55;;;13.40;99.90;;;;;;4959654;28;20026;-66
2023/06/01 01:53:23;;;;;;;4.13;2.28;;;13.30;99.90;;;;;;4955612;28;20522;-66
2023/06/01 01:55:50;;;;;;;5.15;1.92;;;13.20;99.90;;;;;;4979596;28;20499;-66
2023/06/01 01:58:16;;;;;;;4.65;2.13;;;13.20;99.90;;;;;;4978684;28;20031;-66
2023/06/01 02:00:43;;;;;;;7.45;1.80;;;13.20;99.90;;;;;;4984769;28;20492;-65
2023/06/01 02:03:16;;;;;;;5.53;2.17;;;13.20;99.90;;;;;;4968434;28;20110;-66
2023/06/01 02:05:42;;;;;;;6.80;2.13;;;13.30;99.90;;;;;;4977250;28;20114;-66
2023/06/01 02:08:07;;;;;;;6.32;2.42;;;13.30;99.90;;;;;;4982060;28;20161;-66
2023/06/01 02:10:33;;;;;;;4.43;2.05;;;13.40;99.90;;;;;;4978285;28;20050;-66
2023/06/01 02:12:59;;;;;;;4.78;2.25;;;13.30;99.90;;;;;;4982540;28;20026;-65
2023/06/01 02:15:25;;;;;;;4.22;2.47;;;13.20;99.90;;;;;;4984857;28;20045;-66
2023/06/01 02:17:51;;;;;;;6.53;2.22;;;13.10;99.90;;;;;;4992497;28;20033;-66
2023/06/01 02:20:17;;;;;;;6.22;2.35;;;13.00;99.90;;;;;;4990389;28;20038;-66
2023/06/01 02:22:42;;;;;;;3.85;2.08;;;13.00;99.90;;;;;;4991098;28;20037;-65
2023/06/01 02:25:08;;;;;;;5.82;2.22;;;13.00;99.90;;;;;;4976621;28;20653;-65
2023/06/01 02:27:34;;;;;;;7.25;2.20;;;12.90;99.90;;;;;;4986206;28;20042;-66
2023/06/01 02:30:01;;;;;;;4.85;2.60;;;12.90;99.90;;;;;;4988457;28;20112;-66
2023/06/01 02:32:26;;;;;;;7.70;2.15;;;12.80;99.90;;;;;;4992706;28;20483;-67
2023/06/01 02:34:52;;;;;;;9.98;2.55;;;12.80;99.90;;;;;;4990541;28;20042;-65
2023/06/01 02:37:17;;;;;;;12.77;2.45;;;12.70;99.90;;;;;;4990072;28;20053;-66
2023/06/01 02:39:43;;;;;;;7.55;3.00;;;12.80;99.90;;;;;;4990144;28;20034;-66
2023/06/01 02:42:09;;;;;;;12.60;2.78;;;12.70;99.90;;;;;;4988437;28;20031;-65
2023/06/01 02:44:34;;;;;;;5.05;2.38;;;12.70;99.90;;;;;;4985651;28;20447;-65
2023/06/01 02:47:00;;;;;;;3.28;1.88;;;12.60;99.90;;;;;;4992178;28;20049;-63
2023/06/01 02:49:25;;;;;;;9.85;2.35;;;12.60;99.90;;;;;;4992529;28;20077;-66
2023/06/01 02:51:51;;;;;;;6.38;2.45;;;12.60;99.90;;;;;;4991671;28;20034;-67
2023/06/01 02:54:17;;;;;;;6.60;2.13;;;12.50;99.90;;;;;;4968130;28;20467;-65
2023/06/01 02:56:42;;;;;;;5.40;2.10;;;12.50;99.90;;;;;;4987343;28;20018;-66
2023/06/01 02:59:08;;;;;;;6.38;2.10;;;12.50;99.90;;;;;;4988816;28;20109;-66
2023/06/01 03:01:35;;;;;;;3.67;2.00;;;12.40;99.90;;;;;;4987988;28;20037;-66
2023/06/01 03:04:04;;;;;;;5.68;2.10;;;12.40;99.90;;;;;;4991107;28;20056;-65
2023/06/01 03:06:31;;;;;;;7.93;2.97;;;12.30;99.90;;;;;;4987741;28;20081;-65
2023/06/01 03:08:58;;;;;;;8.02;2.30;;;12.30;99.90;;;;;;4990048;28;20030;-66
2023/06/01 03:11:23;;;;;;;8.93;3.75;;;12.20;99.90;;;;;;4990293;28;20026;-66
2023/06/01 03:13:50;;;;;;;4.53;2.50;;;12.20;99.90;;;;;;4969300;28;20729;-66
2023/06/01 03:16:16;;;;;;;7.47;2.20;;;12.20;99.90;;;;;;4988035;28;20030;-66
2023/06/01 03:18:42;;;;;;;5.55;2.63;;;12.10;99.90;;;;;;4991037;28;20041;-66
2023/06/01 03:21:07;;;;;;;7.20;2.35;;;12.10;99.90;;;;;;4972677;28;20030;-66
2023/06/01 03:23:33;;;;;;;6.03;2.88;;;12.10;99.90;;;;;;4988187;28;20034;-65
2023/06/01 03:25:59;;;;;;;5.75;2.63;;;12.10;99.90;;;;;;4990646;28;20400;-65
2023/06/01 03:28:24;;;;;;;21.13;3.63;;;12.20;99.90;;;;;;4989134;28;20118;-65
2023/06/01 03:30:51;;;;;;;5.07;1.90;;;12.30;99.90;;;;;;4988767;28;20029;-66
2023/06/01 03:33:16;;;;;;;6.40;2.47;;;12.30;99.90;;;;;;4975730;28;20546;-66
2023/06/01 03:35:44;;;;;;;5.82;1.92;;;12.30;99.90;;;;;;4991052;28;20030;-66
2023/06/01 03:38:09;;;;;;;8.05;2.72;;;12.30;99.90;;;;;;4987354;28;20045;-66
2023/06/01 03:40:35;;;;;;;5.70;2.40;;;12.40;99.90;;;;;;4992353;28;20042;-66
2023/06/01 03:43:02;;;;;;;5.38;2.13;;;12.40;99.90;;;;;;4987178;28;20022;-66
2023/06/01 03:45:28;;;;;;;5.10;2.53;;;12.40;99.90;;;;;;4989503;28;20042;-66
2023/06/01 03:47:53;;;;;;;7.38;2.58;;;12.40;99.90;;;;;;4988676;28;20065;-65
2023/06/01 03:50:19;;;;;;;4.90;2.10;;;12.40;99.90;;;;;;4988733;28;20105;-66
2023/06/01 03:52:45;;;;;;;4.22;2.03;;;12.50;99.90;;;;;;4970139;28;20604;-65
2023/06/01 03:55:13;;;;;;;4.68;2.05;;;12.50;99.90;;;;;;4990726;28;20018;-66
2023/06/01 03:57:39;;;;;;;5.50;2.25;;;12.50;99.90;;;;;;4988953;28;20042;-66
2023/06/01 04:00:17;;;;;;;6.90;2.60;;;12.50;99.90;;;;;;4988247;28;20027;-66
2023/06/01 04:02:48;;;;;;;7.85;2.20;;;12.60;99.90;;;;;;4986008;28;20045;-66
2023/06/01 04:05:16;;;;;;;7.07;2.17;;;12.70;99.90;;;;;;4985857;28;20038;-66
2023/06/01 04:07:50;;;;;;;8.10;2.20;;;12.70;99.90;;;;;;4985741;28;20044;-66
2023/06/01 04:10:16;;;;;;;7.75;2.20;;;12.70;99.90;;;;;;4989703;28;20026;-66
2023/06/01 04:12:46;;;;;;;6.88;2.45;;;12.90;99.90;;;;;;4988394;28;20612;-66
2023/06/01 04:15:14;;;;;;;5.38;1.73;;;13.00;99.90;;;;;;4989196;28;20081;-66
2023/06/01 04:17:41;;;;;;;7.70;2.40;;;13.10;99.90;;;;;;4971070;28;20088;-66
2023/06/01 04:20:10;;;;;;;9.75;2.85;;;13.20;99.90;;;;;;4985990;28;20034;-66
2023/06/01 04:22:37;;;;;;;5.30;1.75;;;13.40;99.90;;;;;;4988528;28;20493;-66
2023/06/01 04:25:07;;;;;;;6.03;2.53;;;13.50;99.90;;;;;;4987586;28;20042;-66
2023/06/01 04:27:36;;;;;;;7.35;2.20;;;13.60;99.90;;;;;;4985642;28;20038;-66
2023/06/01 04:30:05;;;;;;;7.30;2.33;;;13.70;99.90;;;;;;4988251;28;20018;-65
2023/06/01 04:32:31;;;;;;;12.55;2.55;;;14.00;99.90;;;;;;4989679;28;20022;-66
2023/06/01 04:34:56;;;;;;;5.65;2.53;;;14.90;99.90;;;;;;4983162;28;20826;-66
2023/06/01 04:37:22;;;;;;;3.70;1.75;;;16.40;99.90;;;;;;4987654;28;20026;-67
2023/06/01 04:39:51;;;;;;;8.82;2.30;;;17.70;99.90;;;;;;4985504;28;20724;-66
2023/06/01 04:42:18;;;;;;;6.10;2.00;;;19.10;99.70;;;;;;4987996;28;20031;-66
2023/06/01 04:44:49;;;;;;;3.88;1.90;;;19.90;97.10;;;;;;4987874;28;20030;-64
2023/06/01 04:47:16;;;;;;;3.08;1.27;;;20.90;94.50;;;;;;4974631;28;20441;-66
2023/06/01 04:49:43;;;;;;;6.05;1.67;;;22.00;93.10;;;;;;4988153;28;20076;-67
2023/06/01 04:52:10;;;;;;;6.82;2.13;;;23.10;90.00;;;;;;4986585;28;20089;-67
2023/06/01 04:54:36;;;;;;;3.13;1.70;;;23.60;87.10;;;;;;4970945;28;20121;-66
2023/06/01 04:57:02;;;;;;;4.88;1.95;;;23.90;83.90;;;;;;4983768;28;20137;-66
2023/06/01 04:59:27;;;;;;;5.47;1.77;;;24.10;84.20;;;;;;4984655;28;20474;-67
2023/06/01 05:01:53;;;;;;;9.50;2.40;;;24.60;81.80;;;;;;4984449;28;20080;-66
2023/06/01 05:04:19;;;;;;;3.83;1.52;;;24.90;81.10;;;;;;4987531;28;20535;-66
2023/06/01 05:06:44;;;;;;;3.97;1.58;;;25.00;80.30;;;;;;4988854;28;20400;-65
2023/06/01 05:09:10;;;;;;;4.50;1.75;;;25.50;79.00;;;;;;4987282;28;20105;-66
2023/06/01 05:11:35;;;;;;;4.93;1.88;;;25.90;77.70;;;;;;4986865;28;20734;-65
2023/06/01 05:14:02;;;;;;;4.32;1.92;;;25.40;77.80;;;;;;4987941;28;20041;-66
2023/06/01 05:16:28;;;;;;;5.05;2.00;;;25.50;76.50;;;;;;4986364;28;20125;-66
2023/06/01 05:18:55;;;;;;;5.10;1.85;;;25.90;75.70;;;;;;4984850;28;20105;-64
2023/06/01 05:21:21;;;;;;;8.00;1.75;;;25.70;75.40;;;;;;4985790;28;20451;-66
2023/06/01 05:23:47;;;;;;;3.47;1.70;;;25.20;75.80;;;;;;4984219;28;20026;-66
2023/06/01 05:26:13;;;;;;;5.25;2.08;;;25.70;75.60;;;;;;4986359;28;20034;-66
2023/06/01 05:28:38;;;;;;;6.53;2.38;;;25.90;75.70;;;;;;4986777;28;20030;-66
2023/06/01 05:31:05;;;;;;;3.85;2.30;;;25.90;74.90;;;;;;4970071;28;20033;-66
2023/06/01 05:33:30;;;;;;;5.35;1.85;;;26.20;74.20;;;;;;4983320;28;20033;-66
2023/06/01 05:35:56;;;;;;;6.22;1.80;;;26.30;74.10;;;;;;4985906;28;20031;-67
2023/06/01 05:38:22;;;;;;;3.65;1.80;;;25.90;74.50;;;;;;4984489;28;20109;-67
2023/06/01 05:40:47;;;;;;;3.45;1.92;;;26.70;73.60;;;;;;4987199;28;20065;-66
2023/06/01 05:43:14;;;;;;;5.68;2.05;;;27.00;72.60;;;;;;4975294;28;20377;-67
2023/06/01 05:45:40;;;;;;;7.15;1.88;;;27.20;72.10;;;;;;4986519;28;20030;-66
2023/06/01 05:48:05;;;;;;;6.07;1.80;;;27.40;71.90;;;;;;4983041;28;20023;-66
2023/06/01 05:50:31;;;;;;;4.43;1.88;;;27.40;72.00;;;;;;4987168;28;20022;-67
2023/06/01 05:52:56;;;;;;;4.25;1.75;;;28.50;70.00;;;;;;4970660;28;20093;-66
2023/06/01 05:55:22;;;;;;;4.05;1.65;;;27.80;70.10;;;;;;4986299;28;20037;-66
2023/06/01 05:57:47;;;;;;;5.88;1.67;;;27.80;68.40;;;;;;4984051;28;20038;-66
2023/06/01 06:00:15;;;;;;;3.58;2.10;;;27.50;72.00;;;;;;4984900;28;20089;-66
2023/06/01 06:02:44;;;;;;;6.05;1.80;;;27.80;70.60;;;;;;4987504;28;20042;-67
2023/06/01 06:05:10;;;;;;;4.10;1.90;;;28.00;69.90;;;;;;4987426;28;20034;-66
2023/06/01 06:07:36;;;;;;;3.45;2.03;;;28.10;69.40;;;;;;4985543;28;20070;-66
2023/06/01 06:10:03;;;;;;;4.57;1.92;;;28.80;68.00;;;;;;4987957;28;20086;-66
2023/06/01 06:12:29;;;;;;;5.45;2.67;;;29.20;66.60;;;;;;4983753;28;20035;-66
2023/06/01 06:14:55;;;;;;;4.60;2.65;;;28.90;67.50;;;;;;4968067;28;20027;-66
2023/06/01 06:17:21;;;;;;;5.22;2.45;;;28.60;66.60;;;;;;4974906;28;20034;-66
2023/06/01 06:19:47;;;;;;;9.40;2.92;;;28.10;67.10;;;;;;4989696;28;20026;-67
2023/06/01 06:22:13;;;;;;;4.85;2.20;;;27.80;69.30;;;;;;4990991;28;20459;-66
2023/06/01 06:24:39;;;;;;;4.80;2.10;;;28.20;68.50;;;;;;4987076;28;20042;-66
2023/06/01 06:27:05;;;;;;;6.88;2.47;;;28.50;68.00;;;;;;4988667;28;20062;-66
2023/06/01 06:29:31;;;;;;;4.95;2.67;;;29.10;67.40;;;;;;4988605;28;20081;-66
2023/06/01 06:31:57;;;;;;;6.30;2.90;;;29.40;66.00;;;;;;4990648;28;20019;-66
2023/06/01 06:34:22;;;;;;;7.07;2.63;;;29.70;64.60;;;;;;4989164;28;20555;-66
2023/06/01 06:36:48;;;;;;;5.90;2.97;;;29.20;67.20;;;;;;4990392;28;20109;-67
2023/06/01 06:39:15;;;;;;;8.15;2.95;;;29.50;64.90;;;;;;4985393;28;20030;-66
2023/06/01 06:41:41;;;;;;;5.80;2.88;;;29.50;64.40;;;;;;4985937;28;20034;-67
2023/06/01 06:44:07;;;;;;;4.60;2.40;;;29.10;65.50;;;;;;4984904;28;20045;-67
2023/06/01 06:46:32;;;;;;;5.70;2.78;;;29.40;66.20;;;;;;4990297;28;20038;-67
2023/06/01 06:48:58;;;;;;;7.05;2.83;;;28.90;66.20;;;;;;4991906;28;20858;-67
2023/06/01 06:51:24;;;;;;;5.95;2.83;;;29.90;64.60;;;;;;4992286;28;20015;-66
2023/06/01 06:53:50;;;;;;;4.10;2.60;;;30.60;63.50;;;;;;4956626;28;20046;-66
2023/06/01 06:56:16;;;;;;;7.07;3.05;;;30.30;63.80;;;;;;4966383;28;20511;-66
2023/06/01 06:58:41;;;;;;;5.03;2.55;;;31.40;61.90;;;;;;4984635;28;20034;-66
2023/06/01 07:01:07;;;;;;;5.38;2.70;;;30.40;64.00;;;;;;4991665;28;20030;-66
2023/06/01 07:03:33;;;;;;;5.80;3.08;;;30.80;64.10;;;;;;4992213;28;20101;-66
2023/06/01 07:05:58;;;;;;;4.95;2.75;;;30.60;63.40;;;;;;4989466;28;20037;-66
2023/06/01 07:08:24;;;;;;;6.80;3.42;;;30.20;64.60;;;;;;4986578;28;20569;-66
2023/06/01 07:10:49;;;;;;;8.88;3.22;;;30.20;64.10;;;;;;4990161;28;20030;-66
2023/06/01 07:13:15;;;;;;;6.28;3.47;;;31.20;63.20;;;;;;4988205;28;20482;-66
2023/06/01 07:15:41;;;;;;;9.18;3.92;;;30.80;62.60;;;;;;4991198;28;20029;-66
2023/06/01 07:18:06;;;;;;;7.50;3.80;;;30.10;63.40;;;;;;4991542;28;20026;-66
2023/06/01 07:20:32;;;;;;;7.72;3.80;;;30.90;63.30;;;;;;4988922;28;20045;-66
2023/06/01 07:22:58;;;;;;;8.10;4.13;;;30.70;63.50;;;;;;4990242;28;20399;-66
2023/06/01 07:25:24;;;;;;;7.18;3.97;;;31.10;62.50;;;;;;4991183;28;20040;-66
2023/06/01 07:27:50;;;;;;;5.63;3.78;;;31.10;62.80;;;;;;4988146;28;20035;-67
2023/06/01 07:30:16;;;;;;;6.60;4.70;;;31.40;62.30;;;;;;4989334;28;20030;-66
2023/06/01 07:32:42;;;;;;;6.75;3.85;;;31.00;62.50;;;;;;4991147;28;20537;-67
2023/06/01 07:35:09;;;;;;;8.75;4.32;;;30.90;63.40;;;;;;4991406;28;20026;-66
2023/06/01 07:37:35;;;;;;;7.53;4.20;;;30.70;63.70;;;;;;4990081;28;20022;-66
2023/06/01 07:40:01;;;;;;;7.25;4.45;;;31.20;62.30;;;;;;4985652;28;20444;-67
2023/06/01 07:42:26;;;;;;;6.15;4.53;;;30.20;63.20;;;;;;4990211;28;20037;-66
2023/06/01 07:44:53;;;;;;;10.52;4.85;;;30.70;63.20;;;;;;4991000;28;20388;-67
2023/06/01 07:47:19;;;;;;;7.63;4.55;;;30.30;64.20;;;;;;4990749;28;20117;-66
2023/06/01 07:49:44;;;;;;;7.88;4.70;;;30.20;63.70;;;;;;4989449;28;20097;-67
2023/06/01 07:52:11;;;;;;;6.05;4.18;;;30.50;63.10;;;;;;4990525;28;20101;-66
2023/06/01 07:54:37;;;;;;;7.28;3.97;;;31.20;62.40;;;;;;4965139;28;20404;-67
2023/06/01 07:57:04;;;;;;;7.72;4.75;;;31.80;62.10;;;;;;4989984;28;20034;-67
2023/06/01 07:59:30;;;;;;;6.88;4.50;;;30.80;62.60;;;;;;4986840;28;20678;-67
2023/06/01 08:01:57;;;;;;;6.32;4.07;;;30.40;63.70;;;;;;4987943;28;20527;-67
2023/06/01 08:04:24;;;;;;;7.93;4.10;;;31.30;62.40;;;;;;4988408;28;20026;-67
2023/06/01 08:06:52;;;;;;;5.25;4.18;;;30.50;62.10;;;;;;4970797;28;20026;-67
2023/06/01 08:09:23;;;;;;;6.90;4.15;;;31.50;61.90;;;;;;4986820;28;20030;-67
2023/06/01 08:11:49;;;;;;;7.97;4.72;;;31.20;62.20;;;;;;4989130;28;20026;-67
2023/06/01 08:14:15;;;;;;;7.60;4.55;;;31.30;62.90;;;;;;4987713;28;20018;-67
2023/06/01 08:16:41;;;;;;;10.50;4.55;;;31.60;62.80;;;;;;4989391;28;20057;-66
2023/06/01 08:19:07;;;;;;;6.97;3.95;;;31.80;61.50;;;;;;4988086;28;20034;-66
2023/06/01 08:21:34;;;;;;;9.52;4.50;;;30.30;64.10;;;;;;4988899;28;20423;-67
2023/06/01 08:24:01;;;;;;;7.00;4.60;;;31.20;62.60;;;;;;4986016;28;20026;-64
2023/06/01 08:26:27;;;;;;;6.57;4.68;;;31.00;62.80;;;;;;4989986;28;20033;-67
2023/06/01 08:28:53;;;;;;;7.85;4.85;;;31.40;62.20;;;;;;4987930;28;20038;-67
2023/06/01 08:31:23;;;;;;;9.73;4.00;;;30.60;63.30;;;;;;4981157;28;20392;-67
2023/06/01 08:33:50;;;;;;;6.43;4.00;;;30.50;63.80;;;;;;4987640;28;20027;-67
2023/06/01 08:36:17;;;;;;;7.90;3.95;;;30.40;63.20;;;;;;4989813;28;20023;-67
2023/06/01 08:38:43;;;;;;;8.23;5.35;;;30.40;65.50;;;;;;4984163;28;20035;-67
2023/06/01 08:41:35;;;;;;;11.00;5.95;;;31.10;62.30;;;;;;4988434;28;20045;-67
2023/06/01 08:44:07;;;;;;;9.93;4.40;;;30.60;62.90;;;;;;4988231;28;20037;-67
2023/06/01 08:46:34;;;;;;;7.55;5.20;;;30.50;63.10;;;;;;4985329;28;20059;-67
2023/06/01 08:49:01;;;;;;;9.13;5.78;;;31.00;63.00;;;;;;4987251;28;20026;-67
2023/06/01 08:51:28;;;;;;;6.85;5.07;;;29.90;63.60;;;;;;4985409;28;20037;-66
2023/06/01 08:53:57;;;;;;;13.63;6.10;;;30.60;63.90;;;;;;4970598;28;20092;-67
2023/06/01 08:56:22;;;;;;;9.45;5.40;;;30.20;63.80;;;;;;4987941;28;20039;-67
2023/06/01 08:58:50;;;;;;;8.50;6.07;;;31.00;63.20;;;;;;4988813;28;20038;-67
2023/06/01 09:01:21;;;;;;;9.75;5.55;;;31.40;62.50;;;;;;4972330;28;20085;-67
2023/06/01 09:03:48;;;;;;;7.93;5.30;;;31.70;63.30;;;;;;4989896;28;20026;-66
2023/06/01 09:06:14;;;;;;;9.02;5.88;;;31.00;63.30;;;;;;4988740;28;20062;-66
2023/06/01 09:08:39;;;;;;;7.53;5.90;;;31.10;62.30;;;;;;4987649;28;20058;-66
2023/06/01 09:11:05;;;;;;;8.35;6.05;;;30.90;63.00;;;;;;4989655;28;20022;-67
2023/06/01 09:13:35;;;;;;;7.88;5.45;;;30.30;64.00;;;;;;4988299;28;20030;-67
2023/06/01 09:16:01;;;;;;;7.18;6.18;;;30.30;63.80;;;;;;4988072;28;20087;-66
2023/06/01 09:18:27;;;;;;;10.65;6.38;;;31.00;63.20;;;;;;4989259;28;20093;-66
2023/06/01 09:20:54;;;;;;;8.57;5.57;;;31.10;62.20;;;;;;4986326;28;20034;-66
2023/06/01 09:23:28;;;;;;;7.85;5.40;;;30.20;64.10;;;;;;4986892;28;20019;-66
2023/06/01 09:26:11;;;;;;;7.28;5.10;;;29.70;65.00;;;;;;4984260;28;20101;-66
2023/06/01 09:28:55;;;;;;;8.77;5.18;;;29.60;66.00;;;;;;4982042;28;20555;-66
2023/06/01 09:31:46;;;;;;;8.13;5.70;;;29.60;64.60;;;;;;4964383;28;20049;-67
2023/06/01 09:34:20;;;;;;;9.35;6.35;;;29.30;63.70;;;;;;4985785;28;20053;-66
2023/06/01 09:36:50;;;;;;;6.68;4.63;;;28.50;64.50;;;;;;4986057;28;20022;-67
2023/06/01 09:39:18;;;;;;;5.85;4.53;;;28.80;65.20;;;;;;4986108;28;20034;-66
2023/06/01 09:42:06;;;;;;;6.90;4.82;;;29.40;63.80;;;;;;4985722;28;20085;-67
2023/06/01 09:44:40;;;;;;;8.40;4.57;;;29.50;64.30;;;;;;4982959;28;20030;-66
2023/06/01 09:47:12;;;;;;;6.03;4.07;;;29.60;64.00;;;;;;4986324;28;20504;-66
2023/06/01 09:49:43;;;;;;;4.97;3.88;;;30.20;62.80;;;;;;4978429;28;20030;-67
2023/06/01 09:52:16;;;;;;;7.82;3.97;;;30.10;61.10;;;;;;4991502;28;20038;-66
2023/06/01 09:54:50;;;;;;;6.60;3.92;;;29.60;61.60;;;;;;4974796;28;20046;-66
2023/06/01 09:57:29;;;;;;;6.63;4.95;;;29.70;63.00;;;;;;4989701;28;20030;-67
2023/06/01 09:59:54;;;;;;;5.35;4.13;;;29.90;61.40;;;;;;4989290;28;20603;-66
2023/06/01 10:02:22;;;;;;;5.53;4.20;;;29.50;62.10;;;;;;4990933;28;20113;-67
2023/06/01 10:04:58;;;;;;;6.35;3.92;;;28.70;62.80;;;;;;4986345;28;20026;-63
2023/06/01 10:07:27;;;;;;;8.32;4.05;;;28.40;64.90;;;;;;4980921;28;20472;-66
2023/06/01 10:09:58;;;;;;;6.68;3.83;;;28.30;62.90;;;;;;4988076;28;20034;-66
2023/06/01 10:12:25;;;;;;;7.32;4.82;;;27.70;62.60;;;;;;4981605;28;20080;-66
2023/06/01 10:14:52;;;;;;;14.63;5.60;;;27.20;62.00;;;;;;4955423;28;20043;-66
2023/06/01 10:17:19;;;;;;;12.50;5.32;;;26.60;63.00;;;;;;4974240;28;20037;-66
2023/06/01 10:19:45;;;;;;;7.88;4.88;;;25.90;64.30;;;;;;4991041;28;20030;-66
2023/06/01 10:22:12;;;;;;;7.60;5.15;;;25.60;66.50;;;;;;4992089;28;20033;-66
2023/06/01 10:24:40;;;;;;;8.00;5.60;;;25.00;66.90;;;;;;4991502;28;20118;-66
2023/06/01 10:27:19;;;;;;;12.77;6.88;;;25.10;69.20;;;;;;4986179;28;20047;-66
2023/06/01 10:29:45;;;;;;;11.13;7.40;;;24.90;67.60;;;;;;4988662;28;20492;-65
2023/06/01 10:32:47;;;;;;;11.13;6.60;;;24.40;69.50;;;;;;4987075;28;20073;-66
2023/06/01 10:35:28;;;;;;;11.70;6.90;;;24.30;66.80;;;;;;4990722;28;20027;-66
2023/06/01 10:38:09;;;;;;;10.93;6.07;;;24.50;67.80;;;;;;4984356;28;20034;-67
2023/06/01 10:40:42;;;;;;;14.60;7.78;;;24.40;67.70;;;;;;4985557;28;20037;-66
2023/06/01 10:43:28;;;;;;;14.10;6.87;;;24.40;67.70;;;;;;4987283;28;20635;-66
2023/06/01 10:45:53;;;;;;;10.93;6.72;;;24.50;67.90;;;;;;4989013;28;20031;-66
2023/06/01 10:48:51;;;;;;;11.50;6.55;;;24.30;69.00;;;;;;4991434;28;20045;-66
2023/06/01 10:51:21;;;;;;;10.40;6.90;;;23.90;70.00;;;;;;4974322;28;20030;-66
2023/06/01 10:53:47;;;;;;;12.50;6.43;;;24.00;69.30;;;;;;4972211;28;20425;-67
2023/06/01 10:56:23;;;;;;;14.75;6.55;;;24.10;71.00;;;;;;4973522;28;20173;-66
2023/06/01 10:59:07;;;;;;;10.85;6.75;;;23.80;71.60;;;;;;4970589;28;20042;-66
2023/06/01 11:01:38;;;;;;;18.30;6.82;;;23.90;67.80;;;;;;4989522;28;20488;-66
2023/06/01 11:04:05;;;;;;;10.70;6.53;;;23.80;68.00;;;;;;4992953;28;20038;-65
2023/06/01 11:06:34;;;;;;;13.57;6.82;;;23.50;69.40;;;;;;4989282;28;20026;-66
2023/06/01 11:09:06;;;;;;;11.73;6.35;;;23.30;68.50;;;;;;4988392;28;20073;-66
2023/06/01 11:11:51;;;;;;;11.40;6.10;;;23.00;67.80;;;;;;4990532;28;20072;-66
2023/06/01 11:14:31;;;;;;;12.65;6.90;;;23.00;69.10;;;;;;4979460;28;20405;-66
2023/06/01 11:17:27;;;;;;;10.60;6.13;;;22.90;68.60;;;;;;4988320;28;20030;-66
2023/06/01 11:19:58;;;;;;;13.35;7.70;;;22.80;69.10;;;;;;4989135;28;20026;-66
2023/06/01 11:22:24;;;;;;;10.40;6.80;;;22.70;69.00;;;;;;4999483;23;20049;-68
2023/06/01 11:24:54;;;;;;;12.52;7.05;;;22.80;70.60;;;;;;4984132;28;20023;-66
2023/06/01 11:27:20;;;;;;;17.38;7.43;;;23.00;70.70;;;;;;4969862;28;20023;-67
2023/06/01 11:29:48;;;;;;;12.70;9.25;;;23.30;70.70;;;;;;4969939;28;20034;-67
2023/06/01 11:32:15;;;;;;;15.80;9.00;;;23.40;67.80;;;;;;4971535;28;20058;-67
2023/06/01 11:34:44;;;;;;;16.02;9.60;;;23.00;68.10;;;;;;4972231;28;20046;-66
2023/06/01 11:37:14;;;;;;;14.70;10.13;;;22.90;68.80;;;;;;4965069;28;20042;-68
2023/06/01 11:39:40;;;;;;;19.40;10.45;;;23.00;70.10;;;;;;4966395;28;20033;-67
2023/06/01 11:42:13;;;;;;;22.17;12.40;;;23.10;70.20;;;;;;4967930;28;20023;-66
2023/06/01 11:44:41;;;;;;;20.23;12.70;;;23.30;65.70;;;;;;4971245;28;20027;-67
2023/06/01 11:47:08;;;;;;;19.08;12.75;;;23.30;67.30;;;;;;4966655;28;20047;-66
2023/06/01 11:49:49;;;;;;;21.27;13.77;;;23.10;65.20;;;;;;4962445;28;20031;-66
2023/06/01 11:52:19;;;;;;;21.05;14.07;;;23.10;66.00;;;;;;4967546;28;20035;-67
2023/06/01 11:54:45;;;;;;;20.88;13.70;;;23.10;66.30;;;;;;4966851;28;20118;-67
2023/06/01 11:57:11;;;;;;;24.40;15.77;;;23.00;68.40;;;;;;4964881;28;20023;-66
2023/06/01 11:59:48;;;;;;;22.70;14.68;;;22.90;68.10;;;;;;4970981;28;20089;-67
2023/06/01 12:02:29;;;;;;;32.15;16.67;;;22.90;68.60;;;;;;4963603;28;20405;-66
2023/06/01 12:04:59;;;;;;;22.05;13.40;;;23.00;68.00;;;;;;4967603;28;20034;-66
2023/06/01 12:07:25;;;;;;;23.55;15.32;;;23.30;70.20;;;;;;4984289;28;20069;-67
2023/06/01 12:09:53;;;;;;;23.80;14.38;;;23.40;67.30;;;;;;4970962;28;20034;-66
2023/06/01 12:12:21;;;;;;;24.13;13.20;;;23.10;68.40;;;;;;4970598;28;20042;-67
2023/06/01 12:14:49;;;;;;;22.25;12.38;;;23.20;69.70;;;;;;4948263;28;20034;-65
2023/06/01 12:17:14;;;;;;;25.00;13.63;;;23.20;70.50;;;;;;4964975;28;20022;-67
2023/06/01 12:19:50;;;;;;;19.85;12.60;;;23.10;70.00;;;;;;4960868;28;20504;-67
2023/06/01 12:22:16;;;;;;;19.85;11.38;;;23.10;72.70;;;;;;4966945;28;20034;-67
2023/06/01 12:24:44;;;;;;;21.08;13.32;;;23.30;71.40;;;;;;4963156;28;20117;-67
2023/06/01 12:27:21;;;;;;;21.77;12.98;;;23.40;68.10;;;;;;4967187;28;20037;-66
2023/06/01 12:29:50;;;;;;;21.02;12.10;;;23.30;69.60;;;;;;4960864;28;20023;-67
2023/06/01 12:32:17;;;;;;;17.50;9.68;;;23.10;70.40;;;;;;4963843;28;20081;-68
2023/06/01 12:34:47;;;;;;;23.60;9.88;;;22.90;69.90;;;;;;4969290;28;20023;-67
2023/06/01 12:37:13;;;;;;;15.10;8.88;;;22.90;71.60;;;;;;4966171;28;20111;-67
2023/06/01 12:39:41;;;;;;;15.40;8.65;;;23.10;71.40;;;;;;4970857;28;20145;-67
2023/06/01 12:42:08;;;;;;;19.17;10.73;;;23.10;71.00;;;;;;4971217;28;20034;-67
2023/06/01 12:44:34;;;;;;;19.33;9.90;;;23.00;70.00;;;;;;4970357;28;20489;-68
2023/06/01 12:47:00;;;;;;;16.38;9.02;;;23.10;69.60;;;;;;4965930;28;20054;-67
2023/06/01 12:49:26;;;;;;;15.50;9.20;;;23.10;69.10;;;;;;4969476;28;20035;-67
2023/06/01 12:51:52;;;;;;;13.90;8.57;;;23.20;68.90;;;;;;4969599;28;20034;-67